Time;durP1;ratioP1;P1;durP2;ratioP2;P2;SDS_P1;SDS_P2;PMS_P1;PMS_P2;Temp;Humidity;BMP_temperature;BMP_pressure;BME280_temperature;BME280_humidity;BME280_pressure;Samples;Min_cycle;Max_cycle;Signal;HPM_P1;HPM_P2
2021/08/16 00:02:08;;;;;;;1.15;1.10;;;;;;;;;;4921388;29;20665;-85
2021/08/16 00:04:36;;;;;;;1.60;1.50;;;;;;;;;;4920873;29;20237;-86
2021/08/16 00:07:04;;;;;;;1.02;1.00;;;;;;;;;;4919930;29;20212;-85
2021/08/16 00:09:33;;;;;;;2.15;1.10;;;;;;;;;;4938187;29;20205;-84
2021/08/16 00:12:00;;;;;;;1.33;0.98;;;;;;;;;;4938749;29;20594;-84
2021/08/16 00:14:28;;;;;;;1.40;1.30;;;;;;;;;;4939102;29;20226;-84
2021/08/16 00:16:57;;;;;;;1.20;1.10;;;;;;;;;;4939217;29;20589;-85
2021/08/16 00:19:25;;;;;;;3.53;1.85;;;;;;;;;;4903130;29;20213;-84
2021/08/16 00:21:53;;;;;;;2.53;1.30;;;;;;;;;;4901394;29;20614;-84
2021/08/16 00:24:21;;;;;;;1.00;1.00;;;;;;;;;;4907469;29;20230;-84
2021/08/16 00:26:50;;;;;;;1.33;1.23;;;;;;;;;;4920349;29;20635;-84
2021/08/16 00:29:19;;;;;;;0.88;0.88;;;;;;;;;;4919003;29;20704;-84
2021/08/16 00:31:46;;;;;;;1.10;1.10;;;;;;;;;;4918213;29;20203;-85
2021/08/16 00:34:14;;;;;;;1.05;1.05;;;;;;;;;;4919787;29;20248;-84
2021/08/16 00:36:41;;;;;;;1.75;1.25;;;;;;;;;;4919814;29;20203;-84
2021/08/16 00:39:09;;;;;;;0.85;0.85;;;;;;;;;;4919060;29;20202;-84
2021/08/16 00:41:39;;;;;;;0.80;0.80;;;;;;;;;;4919449;29;20193;-84
2021/08/16 00:44:09;;;;;;;1.38;1.27;;;;;;;;;;4919183;29;20282;-84
2021/08/16 00:46:36;;;;;;;1.05;1.05;;;;;;;;;;4905080;29;20213;-85
2021/08/16 00:49:04;;;;;;;0.93;0.93;;;;;;;;;;4914822;29;20207;-83
2021/08/16 00:51:33;;;;;;;1.00;1.00;;;;;;;;;;4918806;29;20190;-84
2021/08/16 00:54:01;;;;;;;1.00;1.00;;;;;;;;;;4919624;29;20269;-84
2021/08/16 00:56:29;;;;;;;1.40;1.30;;;;;;;;;;4919428;29;20199;-83
2021/08/16 00:58:58;;;;;;;1.40;1.30;;;;;;;;;;4919431;29;20207;-84
2021/08/16 01:01:28;;;;;;;1.00;1.00;;;;;;;;;;4919095;29;20205;-85
2021/08/16 01:03:55;;;;;;;1.58;1.48;;;;;;;;;;4918888;29;20193;-84
2021/08/16 01:06:23;;;;;;;1.48;1.38;;;;;;;;;;4918748;29;20226;-85
2021/08/16 01:08:51;;;;;;;1.40;1.30;;;;;;;;;;4918633;29;20684;-84
2021/08/16 01:11:20;;;;;;;1.38;1.27;;;;;;;;;;4919216;29;20206;-84
2021/08/16 01:13:48;;;;;;;1.15;1.13;;;;;;;;;;4919363;29;20193;-84
2021/08/16 01:16:17;;;;;;;2.03;1.60;;;;;;;;;;4919278;29;20198;-84
2021/08/16 01:18:46;;;;;;;1.95;1.60;;;;;;;;;;4918972;29;20575;-84
2021/08/16 01:21:17;;;;;;;1.50;1.20;;;;;;;;;;4919307;29;20210;-85
2021/08/16 01:23:46;;;;;;;2.53;1.98;;;;;;;;;;4918904;29;20194;-84
2021/08/16 01:26:13;;;;;;;2.20;1.95;;;;;;;;;;4918515;29;20218;-84
2021/08/16 01:28:43;;;;;;;2.20;2.00;;;;;;;;;;4918155;29;20206;-85
2021/08/16 01:31:11;;;;;;;2.30;2.03;;;;;;;;;;4918008;29;20203;-84
2021/08/16 01:33:40;;;;;;;2.38;2.15;;;;;;;;;;4918803;29;20195;-84
2021/08/16 01:36:08;;;;;;;1.88;1.58;;;;;;;;;;4918271;29;20238;-84
2021/08/16 01:38:39;;;;;;;2.38;2.20;;;;;;;;;;4913491;29;20213;-84
2021/08/16 01:41:07;;;;;;;2.13;1.60;;;;;;;;;;4918286;29;20599;-84
2021/08/16 01:43:34;;;;;;;3.40;2.22;;;;;;;;;;4919348;29;20187;-83
2021/08/16 01:46:04;;;;;;;5.68;2.10;;;;;;;;;;4918045;29;20234;-84
2021/08/16 01:48:32;;;;;;;4.32;2.47;;;;;;;;;;4918072;29;20220;-83
2021/08/16 01:50:59;;;;;;;2.42;2.20;;;;;;;;;;4916584;29;20210;-84
2021/08/16 01:53:27;;;;;;;3.30;2.75;;;;;;;;;;4916916;29;20190;-84
2021/08/16 01:55:54;;;;;;;2.03;1.83;;;;;;;;;;4916990;29;20230;-84
2021/08/16 01:58:22;;;;;;;3.53;2.75;;;;;;;;;;4916425;29;20571;-84
2021/08/16 02:00:49;;;;;;;3.35;2.67;;;;;;;;;;4916567;29;20217;-84
2021/08/16 02:03:18;;;;;;;2.30;2.10;;;;;;;;;;4918097;29;20203;-85
2021/08/16 02:05:45;;;;;;;2.35;2.15;;;;;;;;;;4918633;29;20234;-84
2021/08/16 02:08:13;;;;;;;4.20;3.13;;;;;;;;;;4920462;29;20202;-84
2021/08/16 02:10:40;;;;;;;2.75;2.20;;;;;;;;;;4920278;29;20198;-85
2021/08/16 02:13:11;;;;;;;3.38;2.33;;;;;;;;;;4919199;29;20593;-84
2021/08/16 02:15:38;;;;;;;5.88;2.67;;;;;;;;;;4918314;29;20226;-84
2021/08/16 02:18:06;;;;;;;2.53;2.30;;;;;;;;;;4918799;29;20186;-84
2021/08/16 02:20:35;;;;;;;3.00;2.67;;;;;;;;;;4919103;29;20234;-84
2021/08/16 02:23:03;;;;;;;4.00;2.97;;;;;;;;;;4918514;29;20202;-85
2021/08/16 02:25:30;;;;;;;4.03;2.90;;;;;;;;;;4916835;29;20743;-85
2021/08/16 02:27:58;;;;;;;3.38;2.55;;;;;;;;;;4915924;29;20235;-84
2021/08/16 02:30:25;;;;;;;3.25;2.72;;;;;;;;;;4917953;29;20187;-84
2021/08/16 02:32:53;;;;;;;2.00;1.90;;;;;;;;;;4917855;29;20203;-84
2021/08/16 02:35:20;;;;;;;3.55;2.83;;;;;;;;;;4917830;29;20242;-85
2021/08/16 02:37:49;;;;;;;2.08;1.90;;;;;;;;;;4918428;29;20202;-85
2021/08/16 02:40:16;;;;;;;2.60;2.40;;;;;;;;;;4916739;29;20569;-85
2021/08/16 02:42:44;;;;;;;2.15;1.95;;;;;;;;;;4916456;29;20214;-84
2021/08/16 02:45:12;;;;;;;3.70;2.65;;;;;;;;;;4917027;29;20717;-84
2021/08/16 02:47:40;;;;;;;2.60;1.92;;;;;;;;;;4916751;29;20211;-84
2021/08/16 02:50:09;;;;;;;2.55;2.00;;;;;;;;;;4917510;29;20206;-84
2021/08/16 02:52:36;;;;;;;2.00;1.80;;;;;;;;;;4916929;29;20210;-83
2021/08/16 02:55:07;;;;;;;2.03;1.80;;;;;;;;;;4916943;29;20227;-84
2021/08/16 02:57:34;;;;;;;2.17;1.98;;;;;;;;;;4915954;29;20662;-86
2021/08/16 03:00:05;;;;;;;2.50;2.13;;;;;;;;;;4916311;29;20187;-85
2021/08/16 03:02:33;;;;;;;1.98;1.88;;;;;;;;;;4916406;29;20586;-84
2021/08/16 03:05:00;;;;;;;3.40;2.00;;;;;;;;;;4915907;29;20600;-84
2021/08/16 03:07:28;;;;;;;2.15;1.90;;;;;;;;;;4917467;29;20217;-84
2021/08/16 03:09:55;;;;;;;2.65;2.10;;;;;;;;;;4918900;29;20210;-84
2021/08/16 03:12:24;;;;;;;2.63;1.80;;;;;;;;;;4919165;29;20198;-84
2021/08/16 03:14:51;;;;;;;1.70;1.60;;;;;;;;;;4919214;29;20222;-84
2021/08/16 03:17:19;;;;;;;1.98;1.88;;;;;;;;;;4901151;29;20195;-85
2021/08/16 03:19:46;;;;;;;1.98;1.65;;;;;;;;;;4918867;29;20191;-85
2021/08/16 03:22:13;;;;;;;1.60;1.50;;;;;;;;;;4920414;29;20191;-84
2021/08/16 03:24:41;;;;;;;1.80;1.67;;;;;;;;;;4920085;29;20222;-84
2021/08/16 03:27:08;;;;;;;1.63;1.52;;;;;;;;;;4919847;29;20220;-85
2021/08/16 03:29:37;;;;;;;1.75;1.65;;;;;;;;;;4920267;29;20552;-84
2021/08/16 03:32:05;;;;;;;2.00;1.50;;;;;;;;;;4921637;29;20191;-84
2021/08/16 03:34:33;;;;;;;1.75;1.38;;;;;;;;;;4927308;29;20241;-85
2021/08/16 03:37:00;;;;;;;1.48;1.38;;;;;;;;;;4940953;29;20213;-85
2021/08/16 03:39:28;;;;;;;1.98;1.88;;;;;;;;;;4941065;29;20194;-84
2021/08/16 03:41:56;;;;;;;3.20;2.40;;;;;;;;;;4940875;29;20688;-85
2021/08/16 03:44:24;;;;;;;2.05;1.83;;;;;;;;;;4932033;29;20229;-84
2021/08/16 03:46:52;;;;;;;3.30;2.45;;;;;;;;;;4922829;29;20233;-84
2021/08/16 03:49:20;;;;;;;2.67;2.00;;;;;;;;;;4924511;29;20197;-84
2021/08/16 03:51:47;;;;;;;2.40;1.92;;;;;;;;;;4922418;29;20194;-84
2021/08/16 03:54:15;;;;;;;2.25;2.05;;;;;;;;;;4921078;29;20240;-83
2021/08/16 03:56:42;;;;;;;2.15;1.98;;;;;;;;;;4920004;29;20217;-84
2021/08/16 03:59:10;;;;;;;1.80;1.70;;;;;;;;;;4920286;29;20214;-83
2021/08/16 04:01:37;;;;;;;2.25;2.05;;;;;;;;;;4920902;29;20205;-83
2021/08/16 04:04:07;;;;;;;1.70;1.60;;;;;;;;;;4921082;29;20230;-84
2021/08/16 04:06:35;;;;;;;1.88;1.77;;;;;;;;;;4920377;29;20214;-82
2021/08/16 04:09:02;;;;;;;3.50;3.17;;;;;;;;;;4921007;29;20228;-84
2021/08/16 04:11:30;;;;;;;2.95;2.20;;;;;;;;;;4921217;29;20213;-84
2021/08/16 04:13:57;;;;;;;2.42;2.22;;;;;;;;;;4921102;29;20206;-84
2021/08/16 04:16:25;;;;;;;2.60;2.40;;;;;;;;;;4920975;29;20206;-84
2021/08/16 04:18:52;;;;;;;2.30;2.10;;;;;;;;;;4919479;29;20198;-84
2021/08/16 04:21:21;;;;;;;3.17;2.40;;;;;;;;;;4920062;29;20217;-83
2021/08/16 04:23:49;;;;;;;3.50;2.75;;;;;;;;;;4920620;29;20195;-84
2021/08/16 04:26:16;;;;;;;2.40;2.20;;;;;;;;;;4920151;29;20183;-84
2021/08/16 04:28:44;;;;;;;2.42;2.22;;;;;;;;;;4919887;29;20232;-84
2021/08/16 04:31:11;;;;;;;2.92;2.65;;;;;;;;;;4920464;29;20198;-84
2021/08/16 04:33:39;;;;;;;2.40;2.03;;;;;;;;;;4920223;29;20198;-84
2021/08/16 04:36:06;;;;;;;3.72;3.42;;;;;;;;;;4920325;29;20234;-84
2021/08/16 04:38:35;;;;;;;2.72;2.20;;;;;;;;;;4920209;29;20198;-84
2021/08/16 04:41:02;;;;;;;2.00;1.90;;;;;;;;;;4920303;29;20195;-84
2021/08/16 04:43:30;;;;;;;2.50;2.30;;;;;;;;;;4920191;29;20197;-84
2021/08/16 04:45:57;;;;;;;2.53;2.13;;;;;;;;;;4920362;29;20226;-84
2021/08/16 04:48:25;;;;;;;2.88;2.67;;;;;;;;;;4922051;29;20234;-84
2021/08/16 04:50:53;;;;;;;2.10;2.00;;;;;;;;;;4918787;29;20198;-84
2021/08/16 04:53:20;;;;;;;3.13;1.77;;;;;;;;;;4918322;29;20650;-83
2021/08/16 04:55:49;;;;;;;2.45;2.10;;;;;;;;;;4918392;29;20218;-82
2021/08/16 04:58:16;;;;;;;2.40;2.20;;;;;;;;;;4917843;29;20214;-85
2021/08/16 05:00:44;;;;;;;2.75;2.17;;;;;;;;;;4919156;29;20211;-84
2021/08/16 05:03:12;;;;;;;2.63;2.25;;;;;;;;;;4913486;29;20192;-84
2021/08/16 05:05:47;;;;;;;2.42;2.22;;;;;;;;;;4900838;29;20230;-84
2021/08/16 05:08:15;;;;;;;2.85;2.38;;;;;;;;;;4901524;29;20226;-84
2021/08/16 05:10:43;;;;;;;2.20;2.00;;;;;;;;;;4900775;29;20647;-85
2021/08/16 05:13:12;;;;;;;1.95;1.85;;;;;;;;;;4909087;29;20227;-84
2021/08/16 05:15:43;;;;;;;2.78;2.30;;;;;;;;;;4918938;29;20233;-84
2021/08/16 05:18:12;;;;;;;2.80;2.60;;;;;;;;;;4918880;29;20187;-84
2021/08/16 05:20:39;;;;;;;4.95;2.60;;;;;;;;;;4918972;29;20187;-85
2021/08/16 05:23:07;;;;;;;2.15;1.95;;;;;;;;;;4909688;29;20191;-85
2021/08/16 05:25:35;;;;;;;3.88;2.05;;;;;;;;;;4899382;29;20609;-85
2021/08/16 05:28:02;;;;;;;3.08;2.40;;;;;;;;;;4899714;29;20203;-84
2021/08/16 05:30:31;;;;;;;2.83;2.10;;;;;;;;;;4898922;29;20290;-84
2021/08/16 05:32:59;;;;;;;1.95;1.85;;;;;;;;;;4898381;29;20190;-84
2021/08/16 05:35:26;;;;;;;2.80;2.50;;;;;;;;;;4898344;29;20252;-84
2021/08/16 05:37:55;;;;;;;2.50;2.05;;;;;;;;;;4898635;29;20217;-84
2021/08/16 05:40:23;;;;;;;2.35;2.00;;;;;;;;;;4899125;29;20266;-87
2021/08/16 05:42:50;;;;;;;2.55;2.33;;;;;;;;;;4898457;29;20203;-84
2021/08/16 05:45:18;;;;;;;1.85;1.60;;;;;;;;;;4898889;29;20238;-83
2021/08/16 05:47:46;;;;;;;3.20;1.88;;;;;;;;;;4898823;29;20203;-84
2021/08/16 05:50:14;;;;;;;2.05;1.60;;;;;;;;;;4899084;29;20184;-84
2021/08/16 05:52:42;;;;;;;2.05;1.88;;;;;;;;;;4906930;29;20207;-84
2021/08/16 05:55:10;;;;;;;2.28;2.03;;;;;;;;;;4916862;29;20234;-85
2021/08/16 05:57:37;;;;;;;2.58;2.38;;;;;;;;;;4896653;29;20294;-84
2021/08/16 06:00:07;;;;;;;1.85;1.75;;;;;;;;;;4896696;29;20196;-85
2021/08/16 06:02:34;;;;;;;2.78;1.88;;;;;;;;;;4897510;29;20188;-85
2021/08/16 06:05:05;;;;;;;3.50;2.03;;;;;;;;;;4897482;29;20238;-85
2021/08/16 06:07:33;;;;;;;3.47;2.00;;;;;;;;;;4917863;29;20266;-85
2021/08/16 06:10:42;;;;;;;2.53;2.33;;;;;;;;;;4916856;29;20210;-85
2021/08/16 06:13:09;;;;;;;1.67;1.58;;;;;;;;;;4916405;29;20205;-84
2021/08/16 06:15:36;;;;;;;2.15;2.00;;;;;;;;;;4917447;29;20236;-84
2021/08/16 06:18:04;;;;;;;2.30;2.13;;;;;;;;;;4917031;29;20186;-84
2021/08/16 06:20:33;;;;;;;1.85;1.75;;;;;;;;;;4916684;29;20717;-84
2021/08/16 06:23:01;;;;;;;2.10;1.90;;;;;;;;;;4916856;29;20706;-86
2021/08/16 06:25:29;;;;;;;2.50;1.98;;;;;;;;;;4916487;29;20230;-85
2021/08/16 06:27:57;;;;;;;2.85;2.65;;;;;;;;;;4916903;29;20210;-85
2021/08/16 06:30:25;;;;;;;2.05;1.90;;;;;;;;;;4916585;29;20205;-84
2021/08/16 06:32:53;;;;;;;2.63;2.40;;;;;;;;;;4917729;29;20205;-86
2021/08/16 06:35:21;;;;;;;4.20;2.08;;;;;;;;;;4897770;29;20239;-84
2021/08/16 06:37:51;;;;;;;2.78;1.83;;;;;;;;;;4898349;29;20191;-87
2021/08/16 06:40:19;;;;;;;2.95;2.20;;;;;;;;;;4913744;29;20245;-86
2021/08/16 06:42:50;;;;;;;2.13;1.92;;;;;;;;;;4919835;29;20201;-87
2021/08/16 06:45:19;;;;;;;3.50;2.40;;;;;;;;;;4921144;29;20237;-88
2021/08/16 06:48:09;;;;;;;6.40;2.25;;;;;;;;;;4920617;29;20203;-86
2021/08/16 06:50:37;;;;;;;3.97;2.47;;;;;;;;;;4920561;29;20783;-86
2021/08/16 06:53:06;;;;;;;1.67;1.58;;;;;;;;;;4920488;29;20208;-86
2021/08/16 06:55:45;;;;;;;1.85;1.75;;;;;;;;;;4920096;29;20709;-87
2021/08/16 06:58:13;;;;;;;1.73;1.50;;;;;;;;;;4920826;29;20202;-87
2021/08/16 07:00:42;;;;;;;2.17;1.63;;;;;;;;;;4901922;29;20620;-86
2021/08/16 07:03:10;;;;;;;3.00;2.25;;;;;;;;;;4908540;29;20190;-85
2021/08/16 07:05:38;;;;;;;2.65;2.25;;;;;;;;;;4920368;29;20277;-86
2021/08/16 07:08:07;;;;;;;2.85;2.58;;;;;;;;;;4919839;29;20211;-85
2021/08/16 07:10:36;;;;;;;2.75;2.53;;;;;;;;;;4920189;29;20749;-86
2021/08/16 07:13:03;;;;;;;2.78;2.30;;;;;;;;;;4901716;29;20194;-85
2021/08/16 07:15:31;;;;;;;4.82;3.30;;;;;;;;;;4902356;29;20235;-85
2021/08/16 07:18:02;;;;;;;3.22;2.25;;;;;;;;;;4918417;29;20665;-86
2021/08/16 07:20:31;;;;;;;5.45;1.88;;;;;;;;;;4920055;29;20649;-86
2021/08/16 07:22:58;;;;;;;3.65;1.88;;;;;;;;;;4920617;29;20190;-84
2021/08/16 07:25:27;;;;;;;2.17;1.98;;;;;;;;;;4920925;29;20222;-85
2021/08/16 07:27:55;;;;;;;1.58;1.48;;;;;;;;;;4920295;29;20194;-86
2021/08/16 07:30:23;;;;;;;3.03;2.00;;;;;;;;;;4916682;29;20590;-87
2021/08/16 07:32:53;;;;;;;2.28;1.70;;;;;;;;;;4915463;29;20203;-86
2021/08/16 07:50:35;;;;;;;3.13;2.17;;;;;;;;;;4903558;29;20670;-85
2021/08/16 07:53:04;;;;;;;2.67;2.45;;;;;;;;;;4925871;29;20217;-84
2021/08/16 07:55:31;;;;;;;1.98;1.77;;;;;;;;;;4919660;29;20219;-85
2021/08/16 07:58:01;;;;;;;2.25;2.05;;;;;;;;;;4919517;29;20183;-85
2021/08/16 08:00:29;;;;;;;2.70;2.40;;;;;;;;;;4919527;29;20281;-85
2021/08/16 08:02:57;;;;;;;4.10;2.35;;;;;;;;;;4919373;29;20190;-86
2021/08/16 08:06:15;;;;;;;2.13;1.85;;;;;;;;;;4919389;29;20369;-85
2021/08/16 08:08:49;;;;;;;2.20;1.80;;;;;;;;;;4918790;29;20581;-87
2021/08/16 08:11:18;;;;;;;3.83;3.13;;;;;;;;;;4919631;29;20202;-87
2021/08/16 08:13:46;;;;;;;2.38;2.00;;;;;;;;;;4918946;29;20183;-84
2021/08/16 08:16:13;;;;;;;3.15;2.85;;;;;;;;;;4919254;29;20191;-84
2021/08/16 08:18:46;;;;;;;1.98;1.88;;;;;;;;;;4919101;29;20283;-85
2021/08/16 08:21:16;;;;;;;2.50;2.30;;;;;;;;;;4919187;29;20187;-86
2021/08/16 08:24:28;;;;;;;4.28;2.28;;;;;;;;;;4922093;29;20230;-87
2021/08/16 08:26:58;;;;;;;3.05;2.38;;;;;;;;;;4925482;29;20564;-86
2021/08/16 08:32:17;;;;;;;4.40;2.47;;;;;;;;;;4915510;29;20198;-85
2021/08/16 08:34:45;;;;;;;3.15;2.58;;;;;;;;;;4899318;29;20233;-84
2021/08/16 08:37:14;;;;;;;2.60;2.10;;;;;;;;;;4899487;29;20761;-85
2021/08/16 08:39:45;;;;;;;4.32;2.83;;;;;;;;;;4899935;29;20187;-85
2021/08/16 08:42:13;;;;;;;2.20;1.83;;;;;;;;;;4901026;29;20207;-85
2021/08/16 08:44:41;;;;;;;2.20;2.00;;;;;;;;;;4900346;29;20235;-86
2021/08/16 08:47:10;;;;;;;2.88;2.58;;;;;;;;;;4900027;29;20195;-84
2021/08/16 08:49:38;;;;;;;2.53;2.05;;;;;;;;;;4899813;29;20207;-86
2021/08/16 08:52:07;;;;;;;2.63;2.42;;;;;;;;;;4900438;29;20207;-86
2021/08/16 08:54:36;;;;;;;2.90;2.70;;;;;;;;;;4900486;29;20227;-86
2021/08/16 08:57:07;;;;;;;2.42;2.22;;;;;;;;;;4899639;29;20242;-86
2021/08/16 08:59:35;;;;;;;2.53;2.33;;;;;;;;;;4899742;29;20581;-86
2021/08/16 09:02:07;;;;;;;2.58;2.33;;;;;;;;;;4900066;29;20187;-86
2021/08/16 09:04:35;;;;;;;2.80;2.55;;;;;;;;;;4913919;29;20760;-86
2021/08/16 09:07:04;;;;;;;3.40;1.85;;;;;;;;;;4918426;29;20186;-86
2021/08/16 09:09:33;;;;;;;3.33;1.63;;;;;;;;;;4904740;29;20207;-85
2021/08/16 09:12:06;;;;;;;2.53;1.60;;;;;;;;;;4899185;29;20621;-85
2021/08/16 09:14:33;;;;;;;1.60;1.45;;;;;;;;;;4899804;29;20231;-86
2021/08/16 09:17:03;;;;;;;1.60;1.50;;;;;;;;;;4899065;29;20207;-86
2021/08/16 09:19:31;;;;;;;2.53;2.17;;;;;;;;;;4900351;29;20223;-86
2021/08/16 09:22:09;;;;;;;1.20;1.20;;;;;;;;;;4898877;29;20717;-86
2021/08/16 09:25:13;;;;;;;1.42;1.33;;;;;;;;;;4898717;29;20282;-86
2021/08/16 09:27:48;;;;;;;1.23;1.17;;;;;;;;;;4898999;29;20217;-86
2021/08/16 09:30:17;;;;;;;1.95;1.50;;;;;;;;;;4899074;29;20326;-85
2021/08/16 09:32:45;;;;;;;1.60;1.50;;;;;;;;;;4898483;29;20195;-85
2021/08/16 09:35:15;;;;;;;1.27;1.17;;;;;;;;;;4897966;29;20246;-85
2021/08/16 09:38:09;;;;;;;2.25;2.05;;;;;;;;;;4899385;29;20231;-85
2021/08/16 09:40:44;;;;;;;1.25;1.20;;;;;;;;;;4893774;29;20207;-84
2021/08/16 09:43:13;;;;;;;1.33;1.23;;;;;;;;;;4898124;29;20202;-84
2021/08/16 09:45:40;;;;;;;2.10;1.33;;;;;;;;;;4898124;29;20223;-86
2021/08/16 09:48:19;;;;;;;1.50;1.40;;;;;;;;;;4899081;29;20662;-85
2021/08/16 09:50:58;;;;;;;1.60;1.50;;;;;;;;;;4898038;29;20227;-87
2021/08/16 09:54:30;;;;;;;1.60;1.50;;;;;;;;;;4898033;29;20199;-85
2021/08/16 09:56:58;;;;;;;2.00;1.42;;;;;;;;;;4883587;29;20206;-85
2021/08/16 09:59:33;;;;;;;1.42;1.20;;;;;;;;;;4898164;29;20211;-85
2021/08/16 10:02:01;;;;;;;1.25;1.13;;;;;;;;;;4897834;29;20546;-86
2021/08/16 10:04:31;;;;;;;3.25;1.40;;;;;;;;;;4910074;29;20224;-85
2021/08/16 10:06:59;;;;;;;3.22;2.05;;;;;;;;;;4916857;29;20198;-86
2021/08/16 10:09:27;;;;;;;1.55;1.38;;;;;;;;;;4916944;29;20187;-86
2021/08/16 10:11:55;;;;;;;2.15;1.38;;;;;;;;;;4914789;29;20218;-86
2021/08/16 10:14:34;;;;;;;2.15;1.58;;;;;;;;;;4905793;29;20227;-86
2021/08/16 10:17:01;;;;;;;1.23;1.20;;;;;;;;;;4916378;29;20205;-86
2021/08/16 10:19:35;;;;;;;1.40;1.30;;;;;;;;;;4916665;29;20214;-86
2021/08/16 10:22:04;;;;;;;2.28;1.50;;;;;;;;;;4916220;29;20278;-86
2021/08/16 10:24:32;;;;;;;2.45;1.60;;;;;;;;;;4916671;29;20237;-86
2021/08/16 10:27:03;;;;;;;1.40;1.30;;;;;;;;;;4916399;29;20281;-84
2021/08/16 10:29:33;;;;;;;1.50;1.25;;;;;;;;;;4914594;29;20721;-85
2021/08/16 10:32:02;;;;;;;1.35;1.25;;;;;;;;;;4913276;29;20218;-85
2021/08/16 10:34:33;;;;;;;1.30;1.20;;;;;;;;;;4915835;29;20241;-86
2021/08/16 10:37:02;;;;;;;1.58;1.40;;;;;;;;;;4905062;29;20210;-85
2021/08/16 10:39:41;;;;;;;2.63;1.50;;;;;;;;;;4906820;29;20210;-85
2021/08/16 10:42:11;;;;;;;1.90;1.40;;;;;;;;;;4916098;29;20194;-88
2021/08/16 10:44:43;;;;;;;1.38;1.17;;;;;;;;;;4916135;29;20226;-87
2021/08/16 10:47:13;;;;;;;2.90;1.33;;;;;;;;;;4915752;29;20192;-87
2021/08/16 10:49:43;;;;;;;1.90;1.30;;;;;;;;;;4913360;29;20206;-89
2021/08/16 10:52:22;;;;;;;1.73;1.33;;;;;;;;;;4916151;29;20214;-88
2021/08/16 10:54:50;;;;;;;1.10;1.10;;;;;;;;;;4896786;29;20261;-87
2021/08/16 10:57:18;;;;;;;1.08;1.08;;;;;;;;;;4904843;29;20709;-87
2021/08/16 10:59:47;;;;;;;1.42;1.33;;;;;;;;;;4901672;29;20199;-88
2021/08/16 11:02:14;;;;;;;2.45;1.42;;;;;;;;;;4897265;29;20195;-87
2021/08/16 11:04:44;;;;;;;1.45;1.35;;;;;;;;;;4896895;29;20604;-87
2021/08/16 11:07:20;;;;;;;1.27;1.17;;;;;;;;;;4909577;29;20190;-86
2021/08/16 11:10:00;;;;;;;1.55;1.45;;;;;;;;;;4915891;29;20598;-87
2021/08/16 11:12:36;;;;;;;1.30;1.20;;;;;;;;;;4915813;29;20218;-87
2021/08/16 11:15:06;;;;;;;1.00;1.00;;;;;;;;;;4915839;29;20237;-86
2021/08/16 11:17:34;;;;;;;1.65;1.48;;;;;;;;;;4915587;29;20580;-88
2021/08/16 11:20:04;;;;;;;1.20;1.10;;;;;;;;;;4915934;29;20203;-85
2021/08/16 11:22:32;;;;;;;1.77;1.63;;;;;;;;;;4919466;29;20281;-87
2021/08/16 11:25:07;;;;;;;1.35;1.25;;;;;;;;;;4924345;29;20223;-85
2021/08/16 11:27:35;;;;;;;1.65;1.55;;;;;;;;;;4917048;29;20221;-87
2021/08/16 11:30:06;;;;;;;3.00;1.50;;;;;;;;;;4919307;29;20190;-86
2021/08/16 11:32:36;;;;;;;1.20;1.13;;;;;;;;;;4912514;29;20224;-87
2021/08/16 11:35:26;;;;;;;2.75;1.05;;;;;;;;;;4918776;29;20230;-87
2021/08/16 11:37:54;;;;;;;1.48;1.30;;;;;;;;;;4896032;29;20290;-86
2021/08/16 11:40:21;;;;;;;1.67;1.20;;;;;;;;;;4916857;29;20210;-86
2021/08/16 11:42:51;;;;;;;0.95;0.93;;;;;;;;;;4919321;29;20205;-86
2021/08/16 11:45:21;;;;;;;0.98;0.98;;;;;;;;;;4917354;29;20627;-87
2021/08/16 11:47:50;;;;;;;1.40;1.23;;;;;;;;;;4916943;29;20208;-87
2021/08/16 11:50:20;;;;;;;1.80;1.70;;;;;;;;;;4917104;29;20221;-86
2021/08/16 11:52:50;;;;;;;1.40;1.30;;;;;;;;;;4916679;29;20261;-85
2021/08/16 11:55:26;;;;;;;1.40;1.30;;;;;;;;;;4917378;29;20230;-87
2021/08/16 11:57:56;;;;;;;1.50;1.20;;;;;;;;;;4918852;29;20190;-87
2021/08/16 12:00:26;;;;;;;1.55;1.30;;;;;;;;;;4918525;29;20642;-86
2021/08/16 12:02:57;;;;;;;1.73;1.00;;;;;;;;;;4916535;29;20213;-87
2021/08/16 12:05:28;;;;;;;0.95;0.95;;;;;;;;;;4917824;29;20595;-86
2021/08/16 12:07:55;;;;;;;1.40;1.27;;;;;;;;;;4918100;29;20191;-85
2021/08/16 12:10:24;;;;;;;3.05;1.80;;;;;;;;;;4918410;29;20206;-86
2021/08/16 12:13:02;;;;;;;2.13;1.63;;;;;;;;;;4907177;29;20637;-87
2021/08/16 12:15:41;;;;;;;1.40;1.20;;;;;;;;;;4899456;29;20602;-86
2021/08/16 12:18:09;;;;;;;1.45;1.30;;;;;;;;;;4909195;29;20203;-87
2021/08/16 12:20:41;;;;;;;1.38;1.27;;;;;;;;;;4909111;29;20674;-86
2021/08/16 12:23:09;;;;;;;2.03;0.93;;;;;;;;;;4917234;29;20246;-86
2021/08/16 12:25:47;;;;;;;1.38;1.27;;;;;;;;;;4918254;29;20233;-87
2021/08/16 12:28:15;;;;;;;1.48;1.05;;;;;;;;;;4901986;29;20316;-85
2021/08/16 12:31:14;;;;;;;1.35;1.00;;;;;;;;;;4899130;29;20203;-86
2021/08/16 12:33:56;;;;;;;1.48;1.10;;;;;;;;;;4916312;29;20588;-89
2021/08/16 12:37:32;;;;;;;1.92;1.25;;;;;;;;;;4914971;29;20234;-85
2021/08/16 12:43:44;;;;;;;1.20;1.10;;;;;;;;;;4875882;29;20347;-85
2021/08/16 12:46:13;;;;;;;1.88;1.25;;;;;;;;;;4917784;29;20202;-84
2021/08/16 12:48:42;;;;;;;1.65;1.35;;;;;;;;;;4918286;29;20559;-85
2021/08/16 12:51:11;;;;;;;1.35;1.25;;;;;;;;;;4918746;29;20284;-85
2021/08/16 12:53:38;;;;;;;1.50;1.40;;;;;;;;;;4918684;29;20297;-84
2021/08/16 12:56:07;;;;;;;1.30;1.20;;;;;;;;;;4918077;29;20266;-85
2021/08/16 12:58:37;;;;;;;1.08;1.08;;;;;;;;;;4918711;29;20654;-86
2021/08/16 13:01:05;;;;;;;0.85;0.85;;;;;;;;;;4917925;29;20225;-85
2021/08/16 13:03:37;;;;;;;0.98;0.98;;;;;;;;;;4917911;29;20289;-85
2021/08/16 13:06:05;;;;;;;1.70;1.50;;;;;;;;;;4900702;29;20598;-85
2021/08/16 13:08:42;;;;;;;1.52;1.38;;;;;;;;;;4917294;29;20701;-85
2021/08/16 13:15:08;;;;;;;1.73;1.05;;;;;;;;;;4755489;29;20248;-86
2021/08/16 13:17:36;;;;;;;2.03;1.25;;;;;;;;;;4909205;29;20338;-85
2021/08/16 13:20:11;;;;;;;1.20;1.10;;;;;;;;;;4917679;29;20302;-87
2021/08/16 13:22:39;;;;;;;1.50;1.40;;;;;;;;;;4917467;29;20205;-86
2021/08/16 13:25:07;;;;;;;1.30;1.20;;;;;;;;;;4919466;29;20222;-85
2021/08/16 13:27:36;;;;;;;1.10;1.00;;;;;;;;;;4919508;29;20657;-86
2021/08/16 13:30:04;;;;;;;1.10;0.95;;;;;;;;;;4917740;29;20212;-85
2021/08/16 13:32:35;;;;;;;1.10;1.10;;;;;;;;;;4917801;29;20214;-86
2021/08/16 13:35:02;;;;;;;0.77;0.77;;;;;;;;;;4912155;29;20241;-84
2021/08/16 13:37:39;;;;;;;1.02;0.93;;;;;;;;;;4919377;29;20682;-86
2021/08/16 13:40:08;;;;;;;0.85;0.77;;;;;;;;;;4919680;29;20198;-86
2021/08/16 13:42:41;;;;;;;0.80;0.80;;;;;;;;;;4917487;29;20187;-86
2021/08/16 13:45:11;;;;;;;0.80;0.80;;;;;;;;;;4916483;29;20328;-86
2021/08/16 13:47:40;;;;;;;1.40;1.33;;;;;;;;;;4917468;29;20584;-86
2021/08/16 13:50:09;;;;;;;0.90;0.90;;;;;;;;;;4917278;29;20209;-86
2021/08/16 13:52:38;;;;;;;0.90;0.90;;;;;;;;;;4916902;29;20217;-87
2021/08/16 13:55:06;;;;;;;1.00;1.00;;;;;;;;;;4917223;29;20709;-86
2021/08/16 13:57:33;;;;;;;1.55;0.68;;;;;;;;;;4916320;29;20592;-86
2021/08/16 14:00:01;;;;;;;1.00;0.88;;;;;;;;;;4916950;29;20190;-86
2021/08/16 14:02:38;;;;;;;1.00;1.00;;;;;;;;;;4916838;29;20217;-88
2021/08/16 14:05:07;;;;;;;1.42;1.20;;;;;;;;;;4916026;29;20261;-90
2021/08/16 14:07:42;;;;;;;2.75;1.50;;;;;;;;;;4901655;29;20187;-89
2021/08/16 14:10:12;;;;;;;1.20;1.17;;;;;;;;;;4915489;29;20187;-87
2021/08/16 14:12:41;;;;;;;1.50;1.40;;;;;;;;;;4916840;29;20293;-86
2021/08/16 14:15:09;;;;;;;2.00;1.80;;;;;;;;;;4917562;29;20218;-87
2021/08/16 14:17:37;;;;;;;1.63;1.52;;;;;;;;;;4917792;29;20198;-86
2021/08/16 14:20:06;;;;;;;3.45;2.17;;;;;;;;;;4901983;29;20198;-87
2021/08/16 14:22:36;;;;;;;2.00;1.80;;;;;;;;;;4900774;29;20207;-84
2021/08/16 14:25:09;;;;;;;2.22;2.03;;;;;;;;;;4908884;29;20222;-86
2021/08/16 14:27:37;;;;;;;2.28;2.10;;;;;;;;;;4917471;29;20206;-87
2021/08/16 14:30:06;;;;;;;2.50;2.17;;;;;;;;;;4917574;29;20210;-87
2021/08/16 14:32:35;;;;;;;2.35;1.98;;;;;;;;;;4916748;29;20198;-89
2021/08/16 14:35:03;;;;;;;2.45;2.25;;;;;;;;;;4924494;29;20233;-91
2021/08/16 14:37:30;;;;;;;2.28;2.08;;;;;;;;;;4936226;29;20204;-89
2021/08/16 14:39:58;;;;;;;2.75;2.33;;;;;;;;;;4936051;29;20182;-88
2021/08/16 14:42:26;;;;;;;1.77;1.67;;;;;;;;;;4936037;29;20206;-88
2021/08/16 14:44:54;;;;;;;3.97;3.40;;;;;;;;;;4928448;29;20218;-87
2021/08/16 14:47:27;;;;;;;2.83;2.53;;;;;;;;;;4916447;29;20293;-89
2021/08/16 14:49:56;;;;;;;3.55;2.22;;;;;;;;;;4916737;29;20199;-86
2021/08/16 14:52:23;;;;;;;2.50;2.00;;;;;;;;;;4920639;29;20193;-86
2021/08/16 14:54:51;;;;;;;2.38;2.03;;;;;;;;;;4923386;29;20217;-85
2021/08/16 14:57:18;;;;;;;3.17;2.25;;;;;;;;;;4937309;29;20204;-85
2021/08/16 14:59:47;;;;;;;2.78;2.05;;;;;;;;;;4937270;29;20190;-86
2021/08/16 15:02:15;;;;;;;4.03;2.67;;;;;;;;;;4937696;29;20641;-85
2021/08/16 15:04:42;;;;;;;2.75;2.08;;;;;;;;;;4950054;29;20218;-86
2021/08/16 15:07:09;;;;;;;2.40;2.20;;;;;;;;;;4940596;29;20206;-85
2021/08/16 15:09:37;;;;;;;2.33;2.13;;;;;;;;;;4921493;29;20199;-85
2021/08/16 15:12:05;;;;;;;2.50;2.30;;;;;;;;;;4920267;29;20187;-87
2021/08/16 15:14:33;;;;;;;2.75;1.90;;;;;;;;;;4924264;29;20590;-87
2021/08/16 15:17:02;;;;;;;2.53;2.33;;;;;;;;;;4938887;29;20198;-87
2021/08/16 15:19:31;;;;;;;2.40;2.20;;;;;;;;;;4938625;29;20193;-85
2021/08/16 15:22:00;;;;;;;3.72;2.58;;;;;;;;;;4937877;29;20193;-85
2021/08/16 15:24:28;;;;;;;2.55;2.22;;;;;;;;;;4934287;29;20310;-85
2021/08/16 15:26:55;;;;;;;3.00;2.63;;;;;;;;;;4919259;29;20183;-86